createdAt,value
2019-04-28T00:00:17.585Z,9.51
2019-04-28T00:01:16.603Z,9.54
2019-04-28T00:02:17.167Z,9.56
2019-04-28T00:03:16.556Z,9.53
2019-04-28T00:04:16.616Z,9.53
2019-04-28T00:05:17.445Z,9.57
2019-04-28T00:06:16.520Z,9.56
2019-04-28T00:07:16.534Z,9.57
2019-04-28T00:08:17.044Z,9.56
2019-04-28T00:09:17.444Z,9.58
2019-04-28T00:10:16.483Z,9.58
2019-04-28T00:11:16.463Z,9.64
2019-04-28T00:12:16.480Z,9.65
2019-04-28T00:13:16.440Z,9.61
2019-04-28T00:14:16.432Z,9.60
2019-04-28T00:15:17.511Z,9.58
2019-04-28T00:16:16.421Z,9.60
2019-04-28T00:17:17.108Z,9.58
2019-04-28T00:18:16.388Z,9.57
2019-04-28T00:19:16.379Z,9.56
2019-04-28T00:20:16.376Z,9.48
2019-04-28T00:21:17.128Z,9.43
2019-04-28T00:22:16.376Z,9.43
2019-04-28T00:23:16.336Z,9.46
2019-04-28T00:24:16.325Z,9.42
2019-04-28T00:25:16.315Z,9.42
2019-04-28T00:26:16.306Z,9.40
2019-04-28T00:27:16.353Z,9.42
2019-04-28T00:28:16.291Z,9.39
2019-04-28T00:29:16.283Z,9.31
2019-04-28T00:30:16.270Z,9.33
2019-04-28T00:31:16.252Z,9.36
2019-04-28T00:32:16.242Z,9.33
2019-04-28T00:33:16.260Z,9.31
2019-04-28T00:34:17.211Z,9.29
2019-04-28T00:35:16.211Z,9.32
2019-04-28T00:36:16.208Z,9.33
2019-04-28T00:37:16.190Z,9.31
2019-04-28T00:38:16.214Z,9.32
2019-04-28T00:39:16.169Z,9.32
2019-04-28T00:40:17.127Z,9.32
2019-04-28T00:41:16.153Z,9.28
2019-04-28T00:42:16.136Z,9.31
2019-04-28T00:43:16.157Z,9.29
2019-04-28T00:44:16.116Z,9.23
2019-04-28T00:45:16.106Z,9.23
2019-04-28T00:46:16.095Z,9.21
2019-04-28T00:47:16.085Z,9.23
2019-04-28T00:48:16.127Z,9.15
2019-04-28T00:49:16.064Z,9.20
2019-04-28T00:50:16.053Z,9.21
2019-04-28T00:51:16.041Z,9.20
2019-04-28T00:52:16.030Z,9.15
2019-04-28T00:53:16.052Z,9.17
2019-04-28T00:54:16.018Z,9.17
2019-04-28T00:55:16.811Z,9.15
2019-04-28T00:56:15.990Z,9.11
2019-04-28T00:57:16.019Z,9.10
2019-04-28T00:58:15.997Z,9.10
2019-04-28T00:59:15.968Z,9.08
2019-04-28T01:00:15.954Z,9.10
2019-04-28T01:01:15.937Z,9.10
2019-04-28T01:02:15.935Z,9.11
2019-04-28T01:03:15.944Z,9.11
2019-04-28T01:04:15.911Z,9.08
2019-04-28T01:05:15.903Z,9.13
2019-04-28T01:06:15.893Z,9.10
2019-04-28T01:07:15.884Z,9.11
2019-04-28T01:08:16.694Z,9.05
2019-04-28T01:09:15.859Z,9.04
2019-04-28T01:10:15.848Z,9.05
2019-04-28T01:11:15.843Z,9.08
2019-04-28T01:12:15.821Z,9.04
2019-04-28T01:13:16.693Z,9.02
2019-04-28T01:14:15.808Z,9.04
2019-04-28T01:15:16.688Z,9.04
2019-04-28T01:16:15.787Z,9.04
2019-04-28T01:17:15.772Z,9.02
2019-04-28T01:18:15.794Z,8.99
2019-04-28T01:19:16.718Z,8.96
2019-04-28T01:20:15.746Z,9.01
2019-04-28T01:21:15.736Z,9.08
2019-04-28T01:22:15.725Z,9.02
2019-04-28T01:23:15.735Z,9.05
2019-04-28T01:24:15.701Z,9.11
2019-04-28T01:25:15.694Z,9.11
2019-04-28T01:26:15.685Z,9.04
2019-04-28T01:27:15.672Z,9.04
2019-04-28T01:28:15.690Z,8.95
2019-04-28T01:29:15.651Z,8.94
2019-04-28T01:30:15.674Z,8.95
2019-04-28T01:31:16.181Z,8.95
2019-04-28T01:32:15.619Z,8.94
2019-04-28T01:33:15.636Z,8.94
2019-04-28T01:34:15.631Z,8.92
2019-04-28T01:35:15.588Z,8.91
2019-04-28T01:36:15.609Z,8.94
2019-04-28T01:37:15.568Z,8.96
2019-04-28T01:38:15.638Z,8.99
2019-04-28T01:39:15.573Z,8.95
2019-04-28T01:40:15.574Z,8.95
2019-04-28T01:41:15.525Z,8.95
2019-04-28T01:42:15.521Z,8.96
2019-04-28T01:43:15.539Z,8.94
2019-04-28T01:44:16.194Z,8.95
2019-04-28T01:45:16.193Z,8.95
2019-04-28T01:46:15.471Z,8.95
2019-04-28T01:47:15.462Z,8.94
2019-04-28T01:48:15.451Z,8.92
2019-04-28T01:49:15.462Z,8.92
2019-04-28T01:50:16.290Z,8.94
2019-04-28T01:51:15.422Z,8.95
2019-04-28T01:52:15.408Z,8.98
2019-04-28T01:53:15.400Z,8.95
2019-04-28T01:54:15.443Z,8.96
2019-04-28T01:55:15.377Z,8.96
2019-04-28T01:56:15.369Z,8.95
2019-04-28T01:57:15.362Z,8.94
2019-04-28T01:58:15.346Z,8.96
2019-04-28T01:59:15.451Z,8.96
2019-04-28T02:00:22.886Z,8.98
2019-04-28T02:01:16.315Z,8.98
2019-04-28T02:02:15.982Z,8.95
2019-04-28T02:03:15.294Z,8.91
2019-04-28T02:04:15.312Z,8.91
2019-04-28T02:05:15.274Z,8.92
2019-04-28T02:06:15.261Z,8.94
2019-04-28T02:07:15.252Z,8.94
2019-04-28T02:08:15.242Z,8.94
2019-04-28T02:09:15.283Z,8.94
2019-04-28T02:10:15.909Z,8.96
2019-04-28T02:11:15.217Z,8.99
2019-04-28T02:12:15.233Z,8.96
2019-04-28T02:13:15.188Z,8.98
2019-04-28T02:14:15.199Z,8.99
2019-04-28T02:15:15.167Z,8.99
2019-04-28T02:16:15.165Z,8.99
2019-04-28T02:17:15.147Z,9.04
2019-04-28T02:18:15.136Z,9.02
2019-04-28T02:19:15.226Z,9.01
2019-04-28T02:20:15.805Z,9.04
2019-04-28T02:21:15.106Z,8.99
2019-04-28T02:22:15.115Z,9.01
2019-04-28T02:23:15.083Z,9.02
2019-04-28T02:24:15.133Z,9.04
2019-04-28T02:25:15.062Z,9.02
2019-04-28T02:26:15.059Z,9.05
2019-04-28T02:27:15.064Z,9.04
2019-04-28T02:28:15.031Z,9.02
2019-04-28T02:29:15.030Z,8.99
2019-04-28T02:30:15.041Z,8.96
2019-04-28T02:31:15.010Z,8.96
2019-04-28T02:32:14.990Z,8.99
2019-04-28T02:33:14.981Z,9.01
2019-04-28T02:34:14.978Z,9.02
2019-04-28T02:35:15.579Z,9.01
2019-04-28T02:36:14.958Z,9.01
2019-04-28T02:37:14.945Z,8.99
2019-04-28T02:38:14.927Z,9.01
2019-04-28T02:39:14.922Z,8.98
2019-04-28T02:40:14.946Z,8.98
2019-04-28T02:41:14.896Z,8.99
2019-04-28T02:42:14.896Z,9.02
2019-04-28T02:43:14.882Z,9.01
2019-04-28T02:44:14.873Z,9.02
2019-04-28T02:45:14.882Z,9.04
2019-04-28T02:46:14.851Z,9.01
2019-04-28T02:47:16.506Z,9.01
2019-04-28T02:48:14.831Z,8.99
2019-04-28T02:49:14.847Z,9.01
2019-04-28T02:50:15.159Z,8.99
2019-04-28T02:51:15.384Z,8.99
2019-04-28T02:52:14.801Z,9.01
2019-04-28T02:53:14.794Z,9.02
2019-04-28T02:54:14.779Z,9.08
2019-04-28T02:55:14.778Z,9.08
2019-04-28T02:56:14.741Z,9.05
2019-04-28T02:57:14.727Z,9.04
2019-04-28T02:58:14.727Z,9.02
2019-04-28T02:59:14.712Z,9.02
2019-04-28T03:00:14.730Z,9.04
2019-04-28T03:01:22.730Z,9.02
2019-04-28T03:02:15.729Z,9.02
2019-04-28T03:03:14.673Z,9.02
2019-04-28T03:04:14.660Z,9.05
2019-04-28T03:05:14.687Z,9.05
2019-04-28T03:06:14.714Z,9.02
2019-04-28T03:07:15.471Z,9.02
2019-04-28T03:08:15.376Z,9.02
2019-04-28T03:09:14.607Z,9.02
2019-04-28T03:10:14.652Z,9.04
2019-04-28T03:11:14.588Z,9.04
2019-04-28T03:12:14.578Z,9.01
2019-04-28T03:13:14.579Z,9.04
2019-04-28T03:14:14.558Z,9.02
2019-04-28T03:15:14.570Z,9.02
2019-04-28T03:16:14.537Z,9.01
2019-04-28T03:17:14.557Z,9.02
2019-04-28T03:18:14.515Z,9.02
2019-04-28T03:19:14.505Z,8.99
2019-04-28T03:20:14.517Z,8.99
2019-04-28T03:21:15.126Z,9.04
2019-04-28T03:22:14.475Z,9.02
2019-04-28T03:23:14.483Z,9.02
2019-04-28T03:24:14.453Z,9.02
2019-04-28T03:25:14.469Z,9.01
2019-04-28T03:26:14.430Z,9.04
2019-04-28T03:27:14.420Z,9.05
2019-04-28T03:28:14.412Z,9.04
2019-04-28T03:29:15.169Z,9.05
2019-04-28T03:30:15.973Z,9.02
2019-04-28T03:31:46.959Z,8.96
2019-04-28T03:32:31.138Z,8.98
2019-04-28T03:33:19.071Z,8.98
2019-04-28T03:34:15.346Z,8.99
2019-04-28T03:35:14.336Z,8.99
2019-04-28T03:36:15.703Z,8.96
2019-04-28T03:37:14.323Z,8.95
2019-04-28T03:38:14.306Z,8.96
2019-04-28T03:39:14.295Z,8.96
2019-04-28T03:40:14.287Z,8.94
2019-04-28T03:41:14.301Z,8.95
2019-04-28T03:42:14.264Z,8.94
2019-04-28T03:43:14.852Z,8.92
2019-04-28T03:44:14.286Z,8.94
2019-04-28T03:45:14.231Z,8.89
2019-04-28T03:46:14.245Z,8.91
2019-04-28T03:47:14.213Z,8.87
2019-04-28T03:48:14.200Z,8.91
2019-04-28T03:49:15.213Z,8.94
2019-04-28T03:50:14.201Z,8.92
2019-04-28T03:51:14.171Z,8.92
2019-04-28T03:52:14.167Z,8.94
2019-04-28T03:53:14.957Z,8.89
2019-04-28T03:54:14.168Z,8.91
2019-04-28T03:55:15.577Z,8.91
2019-04-28T03:56:14.197Z,8.89
2019-04-28T03:57:14.111Z,8.92
2019-04-28T03:58:14.598Z,8.94
2019-04-28T03:59:14.111Z,8.95
2019-04-28T04:00:14.072Z,8.95
2019-04-28T04:01:14.094Z,8.94
2019-04-28T04:02:14.057Z,8.89
2019-04-28T04:03:14.040Z,8.83
2019-04-28T04:04:14.031Z,8.87
2019-04-28T04:05:14.021Z,8.87
2019-04-28T04:06:14.040Z,8.89
2019-04-28T04:07:14.001Z,8.92
2019-04-28T04:08:14.019Z,8.92
2019-04-28T04:09:15.538Z,8.94
2019-04-28T04:10:13.976Z,8.89
2019-04-28T04:11:14.026Z,8.87
2019-04-28T04:12:13.949Z,8.87
2019-04-28T04:13:13.946Z,8.84
2019-04-28T04:14:13.960Z,8.81
2019-04-28T04:15:13.918Z,8.83
2019-04-28T04:16:14.007Z,8.83
2019-04-28T04:17:13.905Z,8.84
2019-04-28T04:18:13.883Z,8.86
2019-04-28T04:19:14.571Z,8.91
2019-04-28T04:20:13.863Z,8.94
2019-04-28T04:21:13.902Z,8.94
2019-04-28T04:22:15.253Z,8.98
2019-04-28T04:23:13.835Z,8.99
2019-04-28T04:24:13.825Z,8.96
2019-04-28T04:25:13.811Z,9.01
2019-04-28T04:26:13.835Z,8.99
2019-04-28T04:27:13.822Z,8.99
2019-04-28T04:28:13.784Z,8.98
2019-04-28T04:29:13.775Z,8.98
2019-04-28T04:30:13.808Z,9.02
2019-04-28T04:31:13.754Z,9.02
2019-04-28T04:32:22.881Z,9.04
2019-04-28T04:33:14.727Z,9.04
2019-04-28T04:34:13.725Z,8.99
2019-04-28T04:35:13.747Z,9.01
2019-04-28T04:36:13.708Z,8.99
2019-04-28T04:37:13.756Z,8.98
2019-04-28T04:38:14.274Z,8.99
2019-04-28T04:39:13.671Z,8.99
2019-04-28T04:40:13.654Z,9.01
2019-04-28T04:41:13.644Z,9.01
2019-04-28T04:42:13.662Z,9.02
2019-04-28T04:43:13.632Z,8.98
2019-04-28T04:44:13.612Z,8.99
2019-04-28T04:45:14.185Z,8.98
2019-04-28T04:46:14.251Z,8.98
2019-04-28T04:47:13.609Z,8.98
2019-04-28T04:48:13.579Z,8.95
2019-04-28T04:49:13.565Z,8.92
2019-04-28T04:50:13.554Z,8.91
2019-04-28T04:51:13.538Z,8.84
2019-04-28T04:52:14.130Z,8.81
2019-04-28T04:53:13.518Z,8.84
2019-04-28T04:54:14.205Z,8.81
2019-04-28T04:55:14.303Z,8.80
2019-04-28T04:56:13.502Z,8.81
2019-04-28T04:57:13.505Z,8.81
2019-04-28T04:58:14.302Z,8.83
2019-04-28T04:59:13.464Z,8.81
2019-04-28T05:00:13.481Z,8.84
2019-04-28T05:01:13.432Z,8.86
2019-04-28T05:02:26.586Z,8.74
2019-04-28T05:03:14.417Z,8.79
2019-04-28T05:04:13.400Z,8.80
2019-04-28T05:05:13.399Z,8.80
2019-04-28T05:06:13.385Z,8.80
2019-04-28T05:07:13.400Z,8.86
2019-04-28T05:08:15.480Z,8.86
2019-04-28T05:09:13.353Z,8.92
2019-04-28T05:10:13.346Z,8.89
2019-04-28T05:11:13.347Z,8.94
2019-04-28T05:12:13.346Z,8.98
2019-04-28T05:13:13.317Z,8.95
2019-04-28T05:14:13.301Z,9.02
2019-04-28T05:15:15.172Z,9.10
2019-04-28T05:16:13.283Z,9.13
2019-04-28T05:17:13.294Z,9.11
2019-04-28T05:18:13.252Z,9.13
2019-04-28T05:19:13.250Z,9.11
2019-04-28T05:20:13.231Z,9.10
2019-04-28T05:21:13.229Z,9.14
2019-04-28T05:22:13.240Z,9.15
2019-04-28T05:23:13.206Z,9.17
2019-04-28T05:24:15.942Z,9.21
2019-04-28T05:25:13.186Z,9.23
2019-04-28T05:26:13.176Z,9.20
2019-04-28T05:27:17.339Z,9.18
2019-04-28T05:28:14.880Z,9.17
2019-04-28T05:29:13.145Z,9.18
2019-04-28T05:30:14.063Z,9.17
2019-04-28T05:31:19.841Z,9.15
2019-04-28T05:32:14.135Z,9.18
2019-04-28T05:33:13.106Z,9.17
2019-04-28T05:34:13.093Z,9.14
2019-04-28T05:35:17.472Z,9.11
2019-04-28T05:36:14.074Z,9.05
2019-04-28T05:37:13.113Z,9.10
2019-04-28T05:38:13.050Z,9.08
2019-04-28T05:39:13.040Z,9.05
2019-04-28T05:40:13.671Z,9.08
2019-04-28T05:41:13.028Z,9.02
2019-04-28T05:42:13.009Z,9.01
2019-04-28T05:43:13.058Z,8.98
2019-04-28T05:44:12.988Z,8.98
2019-04-28T05:45:12.978Z,8.98
2019-04-28T05:46:13.770Z,9.01
2019-04-28T05:47:13.766Z,8.99
2019-04-28T05:48:12.975Z,8.99
2019-04-28T05:49:12.935Z,8.99
2019-04-28T05:50:12.925Z,8.99
2019-04-28T05:51:12.937Z,9.08
2019-04-28T05:52:13.666Z,9.13
2019-04-28T05:53:12.914Z,9.14
2019-04-28T05:54:12.882Z,9.10
2019-04-28T05:55:12.872Z,9.15
2019-04-28T05:56:12.862Z,9.20
2019-04-28T05:57:12.851Z,9.17
2019-04-28T05:58:12.902Z,9.18
2019-04-28T05:59:13.692Z,9.15
2019-04-28T06:00:12.821Z,9.17
2019-04-28T06:01:12.819Z,9.17
2019-04-28T06:02:12.799Z,9.21
2019-04-28T06:03:12.819Z,9.21
2019-04-28T06:04:12.777Z,9.21
2019-04-28T06:05:12.767Z,9.20
2019-04-28T06:06:12.759Z,9.18
2019-04-28T06:07:12.747Z,9.26
2019-04-28T06:08:12.762Z,9.26
2019-04-28T06:09:13.466Z,9.28
2019-04-28T06:10:12.722Z,9.23
2019-04-28T06:11:12.704Z,9.20
2019-04-28T06:12:12.703Z,9.18
2019-04-28T06:13:12.713Z,9.21
2019-04-28T06:14:12.689Z,9.23
2019-04-28T06:15:12.662Z,9.18
2019-04-28T06:16:12.675Z,9.17
2019-04-28T06:17:12.678Z,9.18
2019-04-28T06:18:12.661Z,9.14
2019-04-28T06:19:12.621Z,9.14
2019-04-28T06:20:12.610Z,9.18
2019-04-28T06:21:12.600Z,9.14
2019-04-28T06:22:12.590Z,9.14
2019-04-28T06:23:12.609Z,9.11
2019-04-28T06:24:12.574Z,9.13
2019-04-28T06:25:12.568Z,9.14
2019-04-28T06:26:12.577Z,9.20
2019-04-28T06:27:12.536Z,9.23
2019-04-28T06:28:12.552Z,9.21
2019-04-28T06:29:12.523Z,9.21
2019-04-28T06:30:14.344Z,9.20
2019-04-28T06:31:12.494Z,9.24
2019-04-28T06:32:12.493Z,9.26
2019-04-28T06:33:14.243Z,9.26
2019-04-28T06:34:12.462Z,9.23
2019-04-28T06:35:12.453Z,9.24
2019-04-28T06:36:12.451Z,9.26
2019-04-28T06:37:12.433Z,9.28
2019-04-28T06:38:13.361Z,9.32
2019-04-28T06:39:12.419Z,9.32
2019-04-28T06:40:12.400Z,9.35
2019-04-28T06:41:12.396Z,9.33
2019-04-28T06:42:12.425Z,9.36
2019-04-28T06:43:13.787Z,9.42
2019-04-28T06:44:12.389Z,9.40
2019-04-28T06:45:12.370Z,9.40
2019-04-28T06:46:12.342Z,9.43
2019-04-28T06:47:12.333Z,9.42
2019-04-28T06:48:12.342Z,9.47
2019-04-28T06:49:12.334Z,9.51
2019-04-28T06:50:12.301Z,9.54
2019-04-28T06:51:12.291Z,9.56
2019-04-28T06:52:12.287Z,9.60
2019-04-28T06:53:12.269Z,9.61
2019-04-28T06:54:12.307Z,9.64
2019-04-28T06:55:12.243Z,9.65
2019-04-28T06:56:12.238Z,9.68
2019-04-28T06:57:12.230Z,9.72
2019-04-28T06:58:12.219Z,9.69
2019-04-28T06:59:12.243Z,9.71
2019-04-28T07:00:12.188Z,9.74
2019-04-28T07:01:12.178Z,9.75
2019-04-28T07:02:12.175Z,9.79
2019-04-28T07:03:22.619Z,9.81
2019-04-28T07:04:13.383Z,9.83
2019-04-28T07:05:12.360Z,9.86
2019-04-28T07:06:12.144Z,9.89
2019-04-28T07:07:12.156Z,9.91
2019-04-28T07:08:13.943Z,9.94
2019-04-28T07:09:12.343Z,10.01
2019-04-28T07:10:12.092Z,10.05
2019-04-28T07:11:12.081Z,10.07
2019-04-28T07:12:12.071Z,10.07
2019-04-28T07:13:12.612Z,10.08
2019-04-28T07:14:12.078Z,10.12
2019-04-28T07:15:12.298Z,10.17
2019-04-28T07:16:12.033Z,10.18
2019-04-28T07:17:12.019Z,10.22
2019-04-28T07:18:12.869Z,10.25
2019-04-28T07:19:13.382Z,10.26
2019-04-28T07:20:12.180Z,10.26
2019-04-28T07:21:12.027Z,10.25
2019-04-28T07:22:13.883Z,10.27
2019-04-28T07:23:11.953Z,10.32
2019-04-28T07:24:11.975Z,10.33
2019-04-28T07:25:11.933Z,10.36
2019-04-28T07:26:11.927Z,10.44
2019-04-28T07:27:11.914Z,10.42
2019-04-28T07:28:12.473Z,10.42
2019-04-28T07:29:11.913Z,10.48
2019-04-28T07:30:11.881Z,10.53
2019-04-28T07:31:11.895Z,10.53
2019-04-28T07:32:12.610Z,10.59
2019-04-28T07:33:11.851Z,10.64
2019-04-28T07:34:11.860Z,10.66
2019-04-28T07:35:12.395Z,10.66
2019-04-28T07:36:11.819Z,10.55
2019-04-28T07:37:11.808Z,10.63
2019-04-28T07:38:11.798Z,10.63
2019-04-28T07:39:12.496Z,10.67
2019-04-28T07:40:11.777Z,10.71
2019-04-28T07:41:11.766Z,10.78
2019-04-28T07:42:11.757Z,10.78
2019-04-28T07:43:11.745Z,10.79
2019-04-28T07:44:11.764Z,10.79
2019-04-28T07:45:11.725Z,10.81
2019-04-28T07:46:11.725Z,10.82
2019-04-28T07:47:11.702Z,10.86
2019-04-28T07:48:11.693Z,10.91
2019-04-28T07:49:12.481Z,11.06
2019-04-28T07:50:11.725Z,11.11
2019-04-28T07:51:11.661Z,11.15
2019-04-28T07:52:11.673Z,11.27
2019-04-28T07:53:11.640Z,11.32
2019-04-28T07:54:11.708Z,11.39
2019-04-28T07:55:11.641Z,11.46
2019-04-28T07:56:11.609Z,11.54
2019-04-28T07:57:11.607Z,11.61
2019-04-28T07:58:11.588Z,11.70
2019-04-28T07:59:11.609Z,11.70
2019-04-28T08:00:11.569Z,11.79
2019-04-28T08:01:11.565Z,11.99
2019-04-28T08:02:11.552Z,12.02
2019-04-28T08:03:11.535Z,12.13
2019-04-28T08:04:12.145Z,12.21
2019-04-28T08:05:12.149Z,12.31
2019-04-28T08:06:11.526Z,12.34
2019-04-28T08:07:12.447Z,12.42
2019-04-28T08:08:11.483Z,12.53
2019-04-28T08:09:11.502Z,12.57
2019-04-28T08:10:11.461Z,12.60
2019-04-28T08:11:11.459Z,12.59
2019-04-28T08:12:11.441Z,12.67
2019-04-28T08:13:11.440Z,12.74
2019-04-28T08:14:11.459Z,12.85
2019-04-28T08:15:11.409Z,12.83
2019-04-28T08:16:12.089Z,12.82
2019-04-28T08:17:11.470Z,12.85
2019-04-28T08:18:12.087Z,12.87
2019-04-28T08:19:11.367Z,12.86
2019-04-28T08:20:11.386Z,12.85
2019-04-28T08:21:11.347Z,12.87
2019-04-28T08:22:11.342Z,13.00
2019-04-28T08:23:11.326Z,13.04
2019-04-28T08:24:11.391Z,13.08
2019-04-28T08:25:11.355Z,13.04
2019-04-28T08:26:11.301Z,13.12
2019-04-28T08:27:11.282Z,13.23
2019-04-28T08:28:11.275Z,13.32
2019-04-28T08:29:12.115Z,13.32
2019-04-28T08:30:11.281Z,13.38
2019-04-28T08:31:11.983Z,13.33
2019-04-28T08:32:11.232Z,13.26
2019-04-28T08:33:11.220Z,13.29
2019-04-28T08:34:11.209Z,13.32
2019-04-28T08:35:11.222Z,13.44
2019-04-28T08:36:11.190Z,13.44
2019-04-28T08:37:11.178Z,13.42
2019-04-28T08:38:11.169Z,13.49
2019-04-28T08:39:11.227Z,13.51
2019-04-28T08:40:11.193Z,13.60
2019-04-28T08:41:11.687Z,13.67
2019-04-28T08:42:11.125Z,13.66
2019-04-28T08:43:11.113Z,13.70
2019-04-28T08:44:11.105Z,13.79
2019-04-28T08:45:11.114Z,13.85
2019-04-28T08:46:11.573Z,13.87
2019-04-28T08:47:11.105Z,13.97
2019-04-28T08:48:11.063Z,14.14
2019-04-28T08:49:11.064Z,14.15
2019-04-28T08:50:11.062Z,14.17
2019-04-28T08:51:11.033Z,14.25
2019-04-28T08:52:11.018Z,14.39
2019-04-28T08:53:13.885Z,14.39
2019-04-28T08:54:10.999Z,14.51
2019-04-28T08:55:11.513Z,14.50
2019-04-28T08:56:10.970Z,14.57
2019-04-28T08:57:10.959Z,14.69
2019-04-28T08:58:10.978Z,14.78
2019-04-28T08:59:10.950Z,14.86
2019-04-28T09:00:10.995Z,14.96
2019-04-28T09:01:10.936Z,14.91
2019-04-28T09:02:10.986Z,15.01
2019-04-28T09:03:10.896Z,14.94
2019-04-28T09:04:15.494Z,14.91
2019-04-28T09:05:11.906Z,14.94
2019-04-28T09:06:10.874Z,15.06
2019-04-28T09:07:10.854Z,15.01
2019-04-28T09:08:10.875Z,15.03
2019-04-28T09:09:10.864Z,14.88
2019-04-28T09:10:10.879Z,15.17
2019-04-28T09:11:10.812Z,15.39
2019-04-28T09:12:10.808Z,15.39
2019-04-28T09:13:10.794Z,15.32
2019-04-28T09:14:10.780Z,15.31
2019-04-28T09:15:10.776Z,15.20
2019-04-28T09:16:10.793Z,15.11
2019-04-28T09:17:10.859Z,15.10
2019-04-28T09:18:10.749Z,14.99
2019-04-28T09:19:11.718Z,14.94
2019-04-28T09:20:10.719Z,14.83
2019-04-28T09:21:10.737Z,14.73
2019-04-28T09:22:10.705Z,14.69
2019-04-28T09:23:10.695Z,14.69
2019-04-28T09:24:10.708Z,14.77
2019-04-28T09:25:10.665Z,15.43
2019-04-28T09:26:11.647Z,15.49
2019-04-28T09:27:10.654Z,15.97
2019-04-28T09:28:10.634Z,16.15
2019-04-28T09:29:11.143Z,16.70
2019-04-28T09:30:10.644Z,16.98
2019-04-28T09:31:10.631Z,16.85
2019-04-28T09:32:11.156Z,16.88
2019-04-28T09:33:11.251Z,16.97
2019-04-28T09:34:10.572Z,17.11
2019-04-28T09:35:10.561Z,17.31
2019-04-28T09:36:10.580Z,17.12
2019-04-28T09:37:10.553Z,16.93
2019-04-28T09:38:10.572Z,16.68
2019-04-28T09:39:10.548Z,16.50
2019-04-28T09:40:10.531Z,16.43
2019-04-28T09:41:10.529Z,15.59
2019-04-28T09:42:10.487Z,15.50
2019-04-28T09:43:10.488Z,15.64
2019-04-28T09:44:10.466Z,15.69
2019-04-28T09:45:10.457Z,15.43
2019-04-28T09:46:10.477Z,15.41
2019-04-28T09:47:10.436Z,15.25
2019-04-28T09:48:10.447Z,15.46
2019-04-28T09:49:10.421Z,15.62
2019-04-28T09:50:10.411Z,16.21
2019-04-28T09:51:11.294Z,16.61
2019-04-28T09:52:10.384Z,17.16
2019-04-28T09:53:10.372Z,17.28
2019-04-28T09:54:10.506Z,17.58
2019-04-28T09:55:10.353Z,18.10
2019-04-28T09:56:10.377Z,18.30
2019-04-28T09:57:10.330Z,18.55
2019-04-28T09:58:10.327Z,18.51
2019-04-28T09:59:11.181Z,18.98
2019-04-28T10:00:10.304Z,19.11
2019-04-28T10:01:10.289Z,19.11
2019-04-28T10:02:10.299Z,18.98
2019-04-28T10:03:10.341Z,18.60
2019-04-28T10:04:10.288Z,18.29
2019-04-28T10:05:10.278Z,18.08
2019-04-28T10:06:10.238Z,17.84
2019-04-28T10:07:10.268Z,17.55
2019-04-28T10:08:10.317Z,17.36
2019-04-28T10:09:10.206Z,17.22
2019-04-28T10:10:10.724Z,17.22
2019-04-28T10:11:10.745Z,17.21
2019-04-28T10:12:10.219Z,17.22
2019-04-28T10:13:10.214Z,17.28
2019-04-28T10:14:10.184Z,17.75
2019-04-28T10:15:10.159Z,17.63
2019-04-28T10:16:10.751Z,17.71
2019-04-28T10:17:11.321Z,18.03
2019-04-28T10:18:10.198Z,18.14
2019-04-28T10:19:10.295Z,18.70
2019-04-28T10:20:10.163Z,19.00
2019-04-28T10:21:10.159Z,18.78
2019-04-28T10:22:10.499Z,19.13
2019-04-28T10:23:10.112Z,18.80
2019-04-28T10:24:10.163Z,18.50
2019-04-28T10:25:10.085Z,17.72
2019-04-28T10:26:10.181Z,18.08
2019-04-28T10:27:10.140Z,18.80
2019-04-28T10:28:10.102Z,19.14
2019-04-28T10:29:10.068Z,18.54
2019-04-28T10:30:10.093Z,18.29
2019-04-28T10:31:10.070Z,18.69
2019-04-28T10:32:10.978Z,18.78
2019-04-28T10:33:10.357Z,18.75
2019-04-28T10:34:10.922Z,18.69
2019-04-28T10:35:10.732Z,18.69
2019-04-28T10:36:10.111Z,19.02
2019-04-28T10:37:09.997Z,19.54
2019-04-28T10:38:09.974Z,19.91
2019-04-28T10:39:10.131Z,19.62
2019-04-28T10:40:09.965Z,19.23
2019-04-28T10:41:10.965Z,18.92
2019-04-28T10:42:10.169Z,18.62
2019-04-28T10:43:09.967Z,18.30
2019-04-28T10:44:10.904Z,17.99
2019-04-28T10:45:09.876Z,17.30
2019-04-28T10:46:10.005Z,17.97
2019-04-28T10:47:11.357Z,17.30
2019-04-28T10:48:09.929Z,16.88
2019-04-28T10:49:09.890Z,16.66
2019-04-28T10:50:09.775Z,16.53
2019-04-28T10:51:09.917Z,16.75
2019-04-28T10:52:09.816Z,17.12
2019-04-28T10:53:09.758Z,16.89
2019-04-28T10:54:09.736Z,16.67
2019-04-28T10:55:10.239Z,16.52
2019-04-28T10:56:09.879Z,16.45
2019-04-28T10:57:09.699Z,16.30
2019-04-28T10:58:09.893Z,16.34
2019-04-28T10:59:09.776Z,16.46
2019-04-28T11:00:09.807Z,16.57
2019-04-28T11:01:09.842Z,16.56
2019-04-28T11:02:10.615Z,16.48
2019-04-28T11:03:09.870Z,16.30
2019-04-28T11:04:10.711Z,16.27
2019-04-28T11:05:10.393Z,16.28
2019-04-28T11:06:12.460Z,16.30
2019-04-28T11:07:09.724Z,16.27
2019-04-28T11:08:09.755Z,16.35
2019-04-28T11:09:09.666Z,16.17
2019-04-28T11:10:09.638Z,16.11
2019-04-28T11:11:09.749Z,16.20
2019-04-28T11:12:09.576Z,16.14
2019-04-28T11:13:09.887Z,16.15
2019-04-28T11:14:09.594Z,16.09
2019-04-28T11:15:09.520Z,15.94
2019-04-28T11:16:10.188Z,15.86
2019-04-28T11:17:10.509Z,15.76
2019-04-28T11:18:09.720Z,15.65
2019-04-28T11:19:09.634Z,15.50
2019-04-28T11:20:09.562Z,15.53
2019-04-28T11:21:09.542Z,15.49
2019-04-28T11:22:09.496Z,15.64
2019-04-28T11:23:09.609Z,15.60
2019-04-28T11:24:09.607Z,15.76
2019-04-28T11:25:09.532Z,15.90
2019-04-28T11:26:09.419Z,16.01
2019-04-28T11:27:09.606Z,16.09
2019-04-28T11:28:09.566Z,16.20
2019-04-28T11:29:09.424Z,16.39
2019-04-28T11:30:09.476Z,16.45
2019-04-28T11:31:09.940Z,16.49
2019-04-28T11:32:09.455Z,16.45
2019-04-28T11:33:09.518Z,16.35
2019-04-28T11:34:09.360Z,16.27
2019-04-28T11:35:21.017Z,16.30
2019-04-28T11:36:11.067Z,16.31
2019-04-28T11:37:09.357Z,16.33
2019-04-28T11:38:09.330Z,16.33
2019-04-28T11:39:09.359Z,16.39
2019-04-28T11:40:09.368Z,16.48
2019-04-28T11:41:11.690Z,16.52
2019-04-28T11:42:10.240Z,16.57
2019-04-28T11:43:09.492Z,16.68
2019-04-28T11:44:10.119Z,16.83
2019-04-28T11:45:09.994Z,16.98
2019-04-28T11:46:09.305Z,17.87
2019-04-28T11:47:09.265Z,18.52
2019-04-28T11:48:09.203Z,18.17
2019-04-28T11:49:09.447Z,17.68
2019-04-28T11:50:09.326Z,17.30
2019-04-28T11:51:09.404Z,17.06
2019-04-28T11:52:09.221Z,16.94
2019-04-28T11:53:09.241Z,16.86
2019-04-28T11:54:10.124Z,16.82
2019-04-28T11:55:09.228Z,16.66
2019-04-28T11:56:09.221Z,16.35
2019-04-28T11:57:09.858Z,16.12
2019-04-28T11:58:09.158Z,16.07
2019-04-28T11:59:09.278Z,16.09
2019-04-28T12:00:09.150Z,16.14
2019-04-28T12:01:09.027Z,16.20
2019-04-28T12:02:09.387Z,16.12
2019-04-28T12:03:09.158Z,16.11
2019-04-28T12:04:09.239Z,16.05
2019-04-28T12:05:09.743Z,16.02
2019-04-28T12:06:09.561Z,16.05
2019-04-28T12:07:09.658Z,16.07
2019-04-28T12:08:09.103Z,16.05
2019-04-28T12:09:09.130Z,16.07
2019-04-28T12:10:09.068Z,16.09
2019-04-28T12:11:09.027Z,16.11
2019-04-28T12:12:09.014Z,16.12
2019-04-28T12:13:09.033Z,16.09
2019-04-28T12:14:09.559Z,16.09
2019-04-28T12:15:09.048Z,16.11
2019-04-28T12:16:08.959Z,16.11
2019-04-28T12:17:09.107Z,16.17
2019-04-28T12:18:09.010Z,16.02
2019-04-28T12:19:08.895Z,15.89
2019-04-28T12:20:08.873Z,15.92
2019-04-28T12:21:08.817Z,16.04
2019-04-28T12:22:08.809Z,16.02
2019-04-28T12:23:09.861Z,16.01
2019-04-28T12:24:08.924Z,15.89
2019-04-28T12:25:09.033Z,15.89
2019-04-28T12:26:09.191Z,15.90
2019-04-28T12:27:08.894Z,15.94
2019-04-28T12:28:08.888Z,15.92
2019-04-28T12:29:08.844Z,15.96
2019-04-28T12:30:09.588Z,15.97
2019-04-28T12:31:08.810Z,16.05
2019-04-28T12:32:08.812Z,16.08
2019-04-28T12:33:08.842Z,16.12
2019-04-28T12:34:08.796Z,16.12
2019-04-28T12:35:09.771Z,16.12
2019-04-28T12:36:08.731Z,16.12
2019-04-28T12:37:08.786Z,16.12
2019-04-28T12:38:08.719Z,16.09
2019-04-28T12:39:08.722Z,16.09
2019-04-28T12:40:08.831Z,16.04
2019-04-28T12:41:08.786Z,16.01
2019-04-28T12:42:08.781Z,15.80
2019-04-28T12:43:08.755Z,15.82
2019-04-28T12:44:09.641Z,15.83
2019-04-28T12:45:08.921Z,15.71
2019-04-28T12:46:10.179Z,15.44
2019-04-28T12:47:08.974Z,15.32
2019-04-28T12:48:08.700Z,15.23
2019-04-28T12:49:08.627Z,15.20
2019-04-28T12:50:08.535Z,15.14
2019-04-28T12:51:08.504Z,15.19
2019-04-28T12:52:08.492Z,15.25
2019-04-28T12:53:08.493Z,15.38
2019-04-28T12:54:08.473Z,15.49
2019-04-28T12:55:08.483Z,15.38
2019-04-28T12:56:08.453Z,15.28
2019-04-28T12:57:08.455Z,15.27
2019-04-28T12:58:08.428Z,15.32
2019-04-28T12:59:08.411Z,15.50
2019-04-28T13:00:08.870Z,15.53
2019-04-28T13:01:08.414Z,15.51
2019-04-28T13:02:08.381Z,15.56
2019-04-28T13:03:08.391Z,15.54
2019-04-28T13:04:08.361Z,15.64
2019-04-28T13:05:08.348Z,15.75
2019-04-28T13:06:09.480Z,15.78